Union Hospital 5k

Terre Haute, IN

Race Results

5K

Sunday, Jun 11, 2017

Results are: Official

Participants 45
Finishers 29
Average Pace 14:24/mile
Average Time 00:44:41
 
 
Place Name Sex Sex Place Age Age Place Chip Time Pace Last Seen At
1 David Templton (# 37) M 1 50 1 / 2 00:22:49 7:21/mile Finish
2 Braden Fears (# 39) M 2 11 1 / 1 00:25:17 8:09/mile Finish
3 Ethan Kirsch (# 45) M 3 16 1 / 1 00:29:15 9:26/mile Finish
4 ELEANOR JONES (# 9) F 1 26 1 / 3 00:31:12 10:03/mile Finish
5 AMY MARTIN (# 28) F 2 48 1 / 7 00:40:46 13:08/mile Finish
6 JO BORMANN (# 31) F 3 60 1 / 6 00:40:59 13:13/mile Finish
7 Melinda Smith (# 41) F 4 28 2 / 3 00:41:20 13:19/mile Finish
8 Kelbre Drebes (# 40) F 5 25 3 / 3 00:41:51 13:29/mile Finish
9 AMANDA HOGUE (# 23) F 6 35 1 / 3 00:42:14 13:37/mile Finish
10 Sue Cass (# 36) F 7 75 1 / 2 00:42:29 13:42/mile Finish
11 CONNIE SWALLS (# 21) F 8 62 2 / 6 00:42:50 13:48/mile Finish
12 Mary Auten (# 42) F 9 70 2 / 2 00:43:40 14:04/mile Finish
13 NANCY DEWEESE (# 22) F 10 54 1 / 2 00:44:37 14:23/mile Finish
14 RON MUNDELL (# 27) M 4 71 1 / 1 00:45:46 14:45/mile Finish
15 ANGIE BRITT (# 6) F 11 43 2 / 7 00:45:50 14:46/mile Finish
16 ANITA PHARES (# 7) F 12 45 3 / 7 00:45:51 14:47/mile Finish
17 MIKE PHARES (# 8) M 5 51 2 / 2 00:45:52 14:47/mile Finish
18 DAWN ALLEE (# 20) F 13 61 3 / 6 00:46:18 14:55/mile Finish
19 Lynn Davidson (# 44) F 14 68 4 / 6 00:48:19 15:35/mile Finish
20 APRIL BADGER (# 24) F 15 46 4 / 7 00:49:23 15:55/mile Finish
    Page:     next >   last >>